KLIT METAR and TAF | Updated Today

KLIT METAR

Bill & Hillary Clinton National Airport/Adams Field

Observation time: 32 min. ago

KLIT 301953Z 02006KT 10SM CLR 11/M08 A3041 RMK AO2 SLP301 T01111083 $

Need help? Read our tutorial on how to read METARs or read the parsed version below.

Bill & Hillary Clinton National Airport/Adams Field (KLIT) METAR

  • Weather conditions on Wed, 30 Nov 2022 19:53:00 +0000 (32 min. ago):
  • Present conditions: Dry
  • Clouds: Clear skies
  • Visibility: 16093 meters
  • Wind: 20 degrees at 6 knots
  • Temperature: 11 celsius
  • Dew point: -8 celsius
  • Pressure: 30.41 inHg
  • Remarks: AO2 SLP301 T01111083 $


Useful to know...

KLIT TAF

Bill & Hillary Clinton National Airport/Adams Field

KLIT 301720Z 3018/0118 36010G15KT P6SM SKC FM010100 VRB05KT P6SM SKC FM011500 11007KT P6SM SCT250
Observation time: 3:05 hr. ago
Need help? Read our tutorial on how to read TAFs or read the parsed version below.

Parsed version of TAF for Bill & Hillary Clinton National Airport/Adams Field (KLIT)

  • From 30 November at 18:00 UTC, to day 01 of the month at 18:00 UTC
  • Clouds: No significant changes expected
  • Wind: 360 degrees at 10
  • From day 1 of the month at 01:00 UTC
  • Clouds: No significant changes expected
  • Wind: Variable at 5
  • From day 1 of the month at 15:00 UTC
  • Clouds: Scattered at 7620 meters
  • Wind: 110 degrees at 7